createdAt,value
2018-11-25T00:00:26.069Z,14.40
2018-11-25T00:01:26.066Z,14.30
2018-11-25T00:02:26.094Z,13.00
2018-11-25T00:03:26.058Z,15.10
2018-11-25T00:04:26.057Z,14.50
2018-11-25T00:05:26.051Z,12.90
2018-11-25T00:06:26.047Z,14.10
2018-11-25T00:07:26.068Z,15.60
2018-11-25T00:08:26.040Z,13.50
2018-11-25T00:09:26.030Z,13.00
2018-11-25T00:10:26.026Z,15.10
2018-11-25T00:11:26.021Z,15.80
2018-11-25T00:12:26.041Z,15.40
2018-11-25T00:13:26.016Z,15.70
2018-11-25T00:14:26.006Z,14.20
2018-11-25T00:15:26.002Z,13.40
2018-11-25T00:16:25.998Z,15.90
2018-11-25T00:17:26.017Z,17.50
2018-11-25T00:18:25.986Z,14.10
2018-11-25T00:19:25.981Z,15.20
2018-11-25T00:20:25.977Z,15.40
2018-11-25T00:21:25.976Z,13.70
2018-11-25T00:22:26.020Z,15.50
2018-11-25T00:23:25.970Z,14.70
2018-11-25T00:24:25.959Z,14.50
2018-11-25T00:25:25.956Z,16.70
2018-11-25T00:26:25.954Z,14.90
2018-11-25T00:27:25.976Z,16.00
2018-11-25T00:28:25.940Z,15.10
2018-11-25T00:29:25.987Z,14.30
2018-11-25T00:30:25.930Z,15.10
2018-11-25T00:31:25.929Z,14.70
2018-11-25T00:32:25.954Z,14.90
2018-11-25T00:33:25.921Z,14.60
2018-11-25T00:34:25.919Z,16.40
2018-11-25T00:35:25.910Z,14.50
2018-11-25T00:36:25.909Z,14.10
2018-11-25T00:37:25.926Z,14.70
2018-11-25T00:38:25.960Z,14.70
2018-11-25T00:39:25.890Z,14.80
2018-11-25T00:40:25.888Z,14.60
2018-11-25T00:41:25.885Z,15.80
2018-11-25T00:42:25.902Z,14.00
2018-11-25T00:43:25.869Z,14.00
2018-11-25T00:44:25.868Z,13.60
2018-11-25T00:45:25.864Z,14.70
2018-11-25T00:46:25.858Z,15.20
2018-11-25T00:47:25.877Z,16.10
2018-11-25T00:48:25.853Z,14.30
2018-11-25T00:49:25.845Z,13.90
2018-11-25T00:50:25.842Z,15.00
2018-11-25T00:51:25.833Z,13.50
2018-11-25T00:52:25.857Z,16.20
2018-11-25T00:53:25.828Z,11.10
2018-11-25T00:54:25.817Z,16.30
2018-11-25T00:55:25.814Z,16.20
2018-11-25T00:56:25.806Z,15.60
2018-11-25T00:57:25.830Z,15.60
2018-11-25T00:58:25.807Z,16.30
2018-11-25T00:59:25.797Z,16.10
2018-11-25T01:00:25.789Z,15.00
2018-11-25T01:01:25.793Z,14.20
2018-11-25T01:02:25.809Z,14.60
2018-11-25T01:03:25.774Z,13.20
2018-11-25T01:04:25.773Z,17.30
2018-11-25T01:05:25.763Z,14.30
2018-11-25T01:06:25.768Z,15.00
2018-11-25T01:07:25.785Z,15.90
2018-11-25T01:08:25.754Z,15.90
2018-11-25T01:09:25.748Z,16.10
2018-11-25T01:10:25.742Z,14.60
2018-11-25T01:11:25.744Z,15.70
2018-11-25T01:12:25.761Z,16.20
2018-11-25T01:13:25.735Z,12.90
2018-11-25T01:14:25.724Z,16.10
2018-11-25T01:15:25.721Z,16.30
2018-11-25T01:16:25.716Z,14.80
2018-11-25T01:17:25.740Z,14.90
2018-11-25T01:18:25.704Z,17.50
2018-11-25T01:19:25.701Z,15.20
2018-11-25T01:20:25.700Z,15.70
2018-11-25T01:21:25.692Z,15.60
2018-11-25T01:22:25.712Z,16.40
2018-11-25T01:23:25.685Z,16.80
2018-11-25T01:24:25.677Z,16.30
2018-11-25T01:25:25.672Z,15.90
2018-11-25T01:26:25.670Z,15.30
2018-11-25T01:27:25.694Z,16.40
2018-11-25T01:28:25.661Z,15.30
2018-11-25T01:29:25.656Z,15.60
2018-11-25T01:30:25.648Z,15.00
2018-11-25T01:31:25.648Z,16.30
2018-11-25T01:32:25.668Z,17.00
2018-11-25T01:33:25.640Z,17.20
2018-11-25T01:34:25.636Z,16.20
2018-11-25T01:35:25.628Z,16.80
2018-11-25T01:36:25.623Z,16.50
2018-11-25T01:37:25.644Z,17.60
2018-11-25T01:38:25.612Z,18.10
2018-11-25T01:39:25.608Z,53.60
2018-11-25T01:40:25.600Z,58.70
2018-11-25T01:41:25.605Z,56.70
2018-11-25T01:42:25.592Z,200.60
2018-11-25T01:43:25.621Z,370.10
2018-11-25T01:44:25.584Z,68.70
2018-11-25T01:45:25.580Z,33.90
2018-11-25T01:46:25.576Z,24.70
2018-11-25T01:47:25.599Z,110.20
2018-11-25T01:48:25.573Z,24.70
2018-11-25T01:49:25.558Z,16.40
2018-11-25T01:50:25.560Z,17.70
2018-11-25T01:51:25.552Z,16.60
2018-11-25T01:52:25.578Z,18.10
2018-11-25T01:53:25.571Z,18.60
2018-11-25T01:54:25.537Z,17.80
2018-11-25T01:55:25.540Z,14.30
2018-11-25T01:56:25.524Z,17.40
2018-11-25T01:57:25.526Z,19.60
2018-11-25T01:58:25.550Z,18.10
2018-11-25T01:59:25.519Z,18.30
2018-11-25T02:00:25.512Z,17.90
2018-11-25T02:01:25.506Z,18.00
2018-11-25T02:02:25.500Z,12.80
2018-11-25T02:03:25.523Z,18.50
2018-11-25T02:04:25.494Z,19.00
2018-11-25T02:05:25.485Z,17.00
2018-11-25T02:06:25.481Z,18.60
2018-11-25T02:07:26.089Z,15.90
2018-11-25T02:08:25.502Z,17.20
2018-11-25T02:09:25.468Z,21.20
2018-11-25T02:10:25.461Z,18.60
2018-11-25T02:11:25.456Z,15.30
2018-11-25T02:12:25.447Z,17.90
2018-11-25T02:13:25.476Z,16.30
2018-11-25T02:14:25.445Z,18.50
2018-11-25T02:15:25.439Z,16.30
2018-11-25T02:16:25.435Z,13.70
2018-11-25T02:17:25.427Z,20.10
2018-11-25T02:18:25.457Z,16.00
2018-11-25T02:19:25.420Z,19.70
2018-11-25T02:20:25.413Z,15.30
2018-11-25T02:21:25.408Z,18.60
2018-11-25T02:22:25.405Z,18.70
2018-11-25T02:23:25.433Z,19.00
2018-11-25T02:24:25.397Z,17.90
2018-11-25T02:25:25.391Z,17.40
2018-11-25T02:26:25.384Z,12.60
2018-11-25T02:27:25.380Z,19.00
2018-11-25T02:28:25.404Z,16.60
2018-11-25T02:29:25.367Z,13.60
2018-11-25T02:30:25.359Z,20.00
2018-11-25T02:31:25.359Z,18.70
2018-11-25T02:32:25.359Z,15.50
2018-11-25T02:33:25.376Z,18.10
2018-11-25T02:34:25.347Z,19.30
2018-11-25T02:35:25.337Z,19.60
2018-11-25T02:36:25.334Z,19.40
2018-11-25T02:37:25.331Z,19.20
2018-11-25T02:38:25.355Z,18.30
2018-11-25T02:39:25.318Z,20.90
2018-11-25T02:40:25.315Z,18.60
2018-11-25T02:41:25.313Z,18.70
2018-11-25T02:42:25.304Z,18.40
2018-11-25T02:43:25.327Z,21.10
2018-11-25T02:44:25.291Z,17.60
2018-11-25T02:45:25.290Z,19.00
2018-11-25T02:46:25.291Z,16.60
2018-11-25T02:47:25.283Z,16.10
2018-11-25T02:48:25.303Z,17.50
2018-11-25T02:49:25.270Z,19.50
2018-11-25T02:50:25.266Z,15.20
2018-11-25T02:51:25.267Z,19.70
2018-11-25T02:52:25.256Z,17.10
2018-11-25T02:53:25.279Z,19.70
2018-11-25T02:54:25.250Z,19.10
2018-11-25T02:55:25.243Z,20.00
2018-11-25T02:56:25.236Z,21.10
2018-11-25T02:57:25.230Z,19.70
2018-11-25T02:58:25.254Z,19.00
2018-11-25T02:59:25.225Z,19.20
2018-11-25T03:00:25.216Z,20.90
2018-11-25T03:01:25.210Z,20.80
2018-11-25T03:02:25.206Z,16.40
2018-11-25T03:03:25.230Z,18.40
2018-11-25T03:04:25.203Z,20.50
2018-11-25T03:05:25.194Z,20.40
2018-11-25T03:06:25.190Z,19.30
2018-11-25T03:07:25.180Z,21.60
2018-11-25T03:08:26.711Z,19.80
2018-11-25T03:09:25.170Z,19.70
2018-11-25T03:10:25.173Z,18.30
2018-11-25T03:11:25.160Z,20.80
2018-11-25T03:12:25.154Z,18.90
2018-11-25T03:13:25.182Z,19.20
2018-11-25T03:14:25.151Z,18.00
2018-11-25T03:15:25.146Z,21.10
2018-11-25T03:16:25.137Z,17.20
2018-11-25T03:17:25.137Z,17.50
2018-11-25T03:18:25.155Z,19.70
2018-11-25T03:19:25.125Z,18.90
2018-11-25T03:20:25.114Z,17.40
2018-11-25T03:21:25.115Z,18.00
2018-11-25T03:22:25.109Z,14.40
2018-11-25T03:23:25.130Z,19.00
2018-11-25T03:24:25.106Z,19.60
2018-11-25T03:25:25.102Z,18.00
2018-11-25T03:26:25.097Z,19.00
2018-11-25T03:27:25.090Z,19.60
2018-11-25T03:28:25.185Z,18.20
2018-11-25T03:29:25.085Z,20.20
2018-11-25T03:30:25.803Z,17.30
2018-11-25T03:31:25.065Z,17.90
2018-11-25T03:32:25.061Z,20.70
2018-11-25T03:33:25.091Z,20.00
2018-11-25T03:34:25.050Z,19.00
2018-11-25T03:35:25.053Z,17.80
2018-11-25T03:36:25.044Z,19.50
2018-11-25T03:37:25.069Z,19.10
2018-11-25T03:38:25.029Z,19.00
2018-11-25T03:39:25.029Z,17.00
2018-11-25T03:40:25.249Z,18.20
2018-11-25T03:41:25.018Z,19.30
2018-11-25T03:42:25.047Z,21.40
2018-11-25T03:43:25.009Z,18.00
2018-11-25T03:44:25.009Z,16.10
2018-11-25T03:45:25.174Z,18.60
2018-11-25T03:46:24.992Z,16.10
2018-11-25T03:47:25.133Z,18.80
2018-11-25T03:48:24.981Z,19.80
2018-11-25T03:49:24.984Z,20.70
2018-11-25T03:50:25.010Z,20.40
2018-11-25T03:51:24.973Z,19.90
2018-11-25T03:52:24.961Z,16.60
2018-11-25T03:53:24.988Z,17.30
2018-11-25T03:54:24.957Z,20.10
2018-11-25T03:55:24.958Z,17.20
2018-11-25T03:56:24.950Z,19.10
2018-11-25T03:57:24.945Z,18.40
2018-11-25T03:58:24.966Z,18.50
2018-11-25T03:59:24.928Z,14.40
2018-11-25T04:00:24.933Z,17.70
2018-11-25T04:01:24.925Z,18.30
2018-11-25T04:02:24.924Z,19.30
2018-11-25T04:03:24.943Z,18.30
2018-11-25T04:04:24.908Z,19.20
2018-11-25T04:05:24.915Z,18.90
2018-11-25T04:06:24.900Z,19.00
2018-11-25T04:07:24.896Z,19.60
2018-11-25T04:08:24.930Z,19.80
2018-11-25T04:09:24.884Z,20.30
2018-11-25T04:10:24.881Z,16.00
2018-11-25T04:11:24.872Z,18.00
2018-11-25T04:12:24.872Z,20.70
2018-11-25T04:13:24.897Z,19.90
2018-11-25T04:14:24.867Z,19.90
2018-11-25T04:15:24.868Z,18.20
2018-11-25T04:16:24.852Z,19.20
2018-11-25T04:17:24.876Z,20.40
2018-11-25T04:18:24.852Z,17.90
2018-11-25T04:19:24.840Z,19.60
2018-11-25T04:20:24.865Z,19.30
2018-11-25T04:21:24.831Z,19.60
2018-11-25T04:22:24.824Z,18.50
2018-11-25T04:23:24.849Z,17.30
2018-11-25T04:24:24.819Z,19.30
2018-11-25T04:25:24.816Z,22.30
2018-11-25T04:26:24.809Z,18.20
2018-11-25T04:27:24.804Z,20.20
2018-11-25T04:28:24.828Z,20.50
2018-11-25T04:29:24.794Z,19.30
2018-11-25T04:30:24.797Z,19.90
2018-11-25T04:31:24.783Z,22.10
2018-11-25T04:32:24.774Z,19.00
2018-11-25T04:33:24.796Z,20.60
2018-11-25T04:34:24.763Z,19.70
2018-11-25T04:35:24.767Z,18.40
2018-11-25T04:36:24.760Z,18.90
2018-11-25T04:37:24.783Z,20.90
2018-11-25T04:38:24.787Z,19.90
2018-11-25T04:39:24.743Z,19.40
2018-11-25T04:40:24.737Z,22.90
2018-11-25T04:41:24.773Z,21.30
2018-11-25T04:42:24.739Z,20.70
2018-11-25T04:43:24.754Z,19.70
2018-11-25T04:44:24.725Z,20.70
2018-11-25T04:45:24.716Z,23.00
2018-11-25T04:46:24.712Z,20.00
2018-11-25T04:47:24.735Z,21.60
2018-11-25T04:48:24.701Z,21.80
2018-11-25T04:49:24.695Z,21.30
2018-11-25T04:50:24.688Z,22.40
2018-11-25T04:51:24.694Z,23.50
2018-11-25T04:52:24.709Z,24.50
2018-11-25T04:53:24.680Z,24.40
2018-11-25T04:54:24.668Z,24.70
2018-11-25T04:55:24.669Z,25.50
2018-11-25T04:56:24.691Z,23.40
2018-11-25T04:57:24.656Z,23.60
2018-11-25T04:58:24.660Z,25.70
2018-11-25T04:59:24.650Z,25.50
2018-11-25T05:00:24.647Z,25.30
2018-11-25T05:01:24.666Z,25.30
2018-11-25T05:02:24.634Z,27.40
2018-11-25T05:03:24.658Z,24.90
2018-11-25T05:04:24.628Z,22.60
2018-11-25T05:05:24.627Z,28.20
2018-11-25T05:06:25.749Z,27.50
2018-11-25T05:07:24.613Z,23.30
2018-11-25T05:08:24.630Z,24.60
2018-11-25T05:09:24.602Z,25.10
2018-11-25T05:10:24.654Z,25.00
2018-11-25T05:11:24.590Z,25.00
2018-11-25T05:12:24.587Z,22.40
2018-11-25T05:13:24.607Z,24.80
2018-11-25T05:14:24.578Z,24.00
2018-11-25T05:15:24.571Z,26.30
2018-11-25T05:16:24.564Z,25.10
2018-11-25T05:17:24.558Z,24.80
2018-11-25T05:18:24.582Z,24.60
2018-11-25T05:19:24.551Z,23.60
2018-11-25T05:20:24.546Z,18.60
2018-11-25T05:21:24.539Z,22.40
2018-11-25T05:22:24.530Z,23.50
2018-11-25T05:23:24.562Z,24.20
2018-11-25T05:24:24.534Z,23.10
2018-11-25T05:25:24.523Z,19.80
2018-11-25T05:26:24.514Z,21.80
2018-11-25T05:27:24.512Z,26.40
2018-11-25T05:28:24.535Z,25.80
2018-11-25T05:29:24.498Z,28.20
2018-11-25T05:30:24.493Z,28.70
2018-11-25T05:31:24.486Z,27.80
2018-11-25T05:32:24.483Z,30.70
2018-11-25T05:33:24.505Z,37.80
2018-11-25T05:34:24.476Z,37.50
2018-11-25T05:35:24.474Z,43.00
2018-11-25T05:36:24.464Z,38.60
2018-11-25T05:37:24.460Z,37.10
2018-11-25T05:38:24.477Z,31.20
2018-11-25T05:39:24.446Z,35.40
2018-11-25T05:40:24.442Z,33.50
2018-11-25T05:41:24.445Z,33.70
2018-11-25T05:42:24.430Z,44.70
2018-11-25T05:43:24.456Z,52.90
2018-11-25T05:44:24.421Z,54.60
2018-11-25T05:45:24.414Z,46.40
2018-11-25T05:46:24.411Z,42.90
2018-11-25T05:47:24.402Z,43.70
2018-11-25T05:48:24.427Z,37.70
2018-11-25T05:49:24.394Z,39.80
2018-11-25T05:50:25.030Z,40.70
2018-11-25T05:51:24.383Z,39.50
2018-11-25T05:52:24.407Z,39.70
2018-11-25T05:53:24.369Z,36.00
2018-11-25T05:54:24.368Z,40.60
2018-11-25T05:55:24.357Z,39.30
2018-11-25T05:56:24.381Z,39.10
2018-11-25T05:57:24.350Z,38.40
2018-11-25T05:58:24.373Z,40.80
2018-11-25T05:59:24.338Z,36.20
2018-11-25T06:00:24.330Z,41.00
2018-11-25T06:01:24.325Z,42.70
2018-11-25T06:02:24.317Z,40.50
2018-11-25T06:03:25.496Z,42.60
2018-11-25T06:04:24.305Z,41.20
2018-11-25T06:05:24.301Z,35.70
2018-11-25T06:06:24.303Z,38.30
2018-11-25T06:07:24.292Z,44.70
2018-11-25T06:08:24.310Z,47.00
2018-11-25T06:09:24.277Z,42.60
2018-11-25T06:10:24.273Z,45.70
2018-11-25T06:11:24.257Z,55.30
2018-11-25T06:12:24.261Z,59.80
2018-11-25T06:13:24.275Z,53.80
2018-11-25T06:14:24.246Z,190.90
2018-11-25T06:15:24.237Z,186.10
2018-11-25T06:16:24.233Z,165.30
2018-11-25T06:17:24.253Z,130.40
2018-11-25T06:18:24.231Z,70.70
2018-11-25T06:19:24.209Z,77.20
2018-11-25T06:20:24.209Z,72.70
2018-11-25T06:21:24.209Z,59.30
2018-11-25T06:22:24.224Z,62.40
2018-11-25T06:23:24.189Z,71.80
2018-11-25T06:24:24.183Z,66.70
2018-11-25T06:25:24.177Z,71.00
2018-11-25T06:26:24.170Z,64.70
2018-11-25T06:27:24.197Z,70.30
2018-11-25T06:28:24.185Z,65.00
2018-11-25T06:29:24.153Z,72.90
2018-11-25T06:30:24.181Z,65.00
2018-11-25T06:31:24.140Z,79.50
2018-11-25T06:32:24.137Z,68.00
2018-11-25T06:33:24.157Z,67.40
2018-11-25T06:34:24.120Z,61.60
2018-11-25T06:35:24.117Z,65.10
2018-11-25T06:36:24.110Z,63.10
2018-11-25T06:37:24.106Z,65.00
2018-11-25T06:38:24.451Z,57.80
2018-11-25T06:39:24.131Z,61.60
2018-11-25T06:40:24.086Z,48.80
2018-11-25T06:41:24.076Z,53.90
2018-11-25T06:42:24.068Z,65.80
2018-11-25T06:43:24.092Z,57.10
2018-11-25T06:44:24.056Z,62.10
2018-11-25T06:45:24.053Z,50.90
2018-11-25T06:46:24.050Z,46.20
2018-11-25T06:47:24.040Z,53.10
2018-11-25T06:48:24.064Z,50.00
2018-11-25T06:49:24.028Z,55.20
2018-11-25T06:50:24.028Z,53.60
2018-11-25T06:51:24.064Z,57.70
2018-11-25T06:52:24.014Z,67.00
2018-11-25T06:53:24.038Z,87.80
2018-11-25T06:54:23.996Z,84.50
2018-11-25T06:55:23.996Z,83.80
2018-11-25T06:56:27.504Z,93.30
2018-11-25T06:57:23.982Z,86.90
2018-11-25T06:58:23.996Z,80.10
2018-11-25T06:59:23.971Z,65.40
2018-11-25T07:00:23.982Z,65.50
2018-11-25T07:01:23.952Z,69.90
2018-11-25T07:02:23.948Z,72.60
2018-11-25T07:03:23.965Z,72.90
2018-11-25T07:04:23.937Z,68.80
2018-11-25T07:05:23.931Z,66.80
2018-11-25T07:06:23.924Z,68.80
2018-11-25T07:07:23.920Z,76.90
2018-11-25T07:08:23.936Z,82.60
2018-11-25T07:09:23.908Z,108.80
2018-11-25T07:10:23.903Z,107.30
2018-11-25T07:11:23.892Z,93.00
2018-11-25T07:12:23.888Z,105.90
2018-11-25T07:13:23.908Z,110.70
2018-11-25T07:14:23.879Z,73.20
2018-11-25T07:15:23.868Z,64.80
2018-11-25T07:16:23.898Z,57.30
2018-11-25T07:17:23.883Z,60.60
2018-11-25T07:18:23.854Z,54.00
2018-11-25T07:19:23.872Z,64.70
2018-11-25T07:20:23.835Z,63.90
2018-11-25T07:21:23.834Z,74.80
2018-11-25T07:22:23.827Z,97.10
2018-11-25T07:23:23.849Z,86.50
2018-11-25T07:24:23.815Z,91.80
2018-11-25T07:25:23.807Z,96.50
2018-11-25T07:26:23.803Z,151.70
2018-11-25T07:27:23.820Z,117.20
2018-11-25T07:28:23.791Z,97.50
2018-11-25T07:29:23.780Z,96.90
2018-11-25T07:30:23.785Z,106.90
2018-11-25T07:31:23.770Z,228.20
2018-11-25T07:32:23.795Z,196.50
2018-11-25T07:33:23.791Z,126.70
2018-11-25T07:34:23.756Z,96.90
2018-11-25T07:35:23.748Z,90.20
2018-11-25T07:36:23.744Z,71.70
2018-11-25T07:37:23.735Z,66.60
2018-11-25T07:38:23.853Z,69.80
2018-11-25T07:39:23.726Z,76.10
2018-11-25T07:40:23.725Z,76.90
2018-11-25T07:41:23.712Z,74.10
2018-11-25T07:42:23.707Z,77.30
2018-11-25T07:43:23.731Z,77.50
2018-11-25T07:44:23.703Z,82.90
2018-11-25T07:45:29.987Z,80.70
2018-11-25T07:46:23.683Z,85.30
2018-11-25T07:47:23.678Z,78.80
2018-11-25T07:48:23.696Z,73.10
2018-11-25T07:49:23.666Z,64.90
2018-11-25T07:50:23.659Z,67.90
2018-11-25T07:51:23.654Z,75.50
2018-11-25T07:52:23.646Z,90.80
2018-11-25T07:53:23.670Z,57.70
2018-11-25T07:54:23.639Z,56.80
2018-11-25T07:55:23.643Z,51.60
2018-11-25T07:56:23.626Z,48.30
2018-11-25T07:57:23.625Z,48.20
2018-11-25T07:58:23.690Z,88.20
2018-11-25T07:59:23.610Z,86.30
2018-11-25T08:00:23.613Z,50.20
2018-11-25T08:01:23.602Z,49.20
2018-11-25T08:02:23.602Z,70.80
2018-11-25T08:03:23.625Z,56.00
2018-11-25T08:04:23.594Z,81.60
2018-11-25T08:05:23.588Z,29.10
2018-11-25T08:06:23.590Z,29.50
2018-11-25T08:07:23.585Z,26.60
2018-11-25T08:08:23.613Z,23.00
2018-11-25T08:09:23.581Z,21.00
2018-11-25T08:10:23.585Z,19.20
2018-11-25T08:11:23.585Z,22.20
2018-11-25T08:12:23.578Z,30.10
2018-11-25T08:13:23.603Z,28.50
2018-11-25T08:14:23.608Z,41.60
2018-11-25T08:15:23.578Z,23.30
2018-11-25T08:16:23.582Z,42.80
2018-11-25T08:17:23.574Z,85.40
2018-11-25T08:18:23.603Z,23.60
2018-11-25T08:19:23.638Z,30.70
2018-11-25T08:20:23.582Z,21.60
2018-11-25T08:21:23.575Z,56.10
2018-11-25T08:22:23.577Z,45.40
2018-11-25T08:23:23.608Z,45.20
2018-11-25T08:24:23.581Z,41.50
2018-11-25T08:25:23.574Z,125.10
2018-11-25T08:26:23.578Z,67.50
2018-11-25T08:27:23.583Z,49.00
2018-11-25T08:28:23.629Z,52.50
2018-11-25T08:29:23.586Z,19.50
2018-11-25T08:30:23.577Z,19.60
2018-11-25T08:31:23.589Z,18.90
2018-11-25T08:32:23.582Z,23.80
2018-11-25T08:33:23.609Z,19.40
2018-11-25T08:34:23.591Z,15.10
2018-11-25T08:35:23.585Z,16.60
2018-11-25T08:36:23.586Z,17.60
2018-11-25T08:37:23.620Z,19.50
2018-11-25T08:38:23.617Z,20.00
2018-11-25T08:39:23.617Z,29.50
2018-11-25T08:40:23.594Z,16.70
2018-11-25T08:41:23.598Z,18.20
2018-11-25T08:42:23.601Z,18.80
2018-11-25T08:43:23.628Z,31.80
2018-11-25T08:44:23.593Z,34.90
2018-11-25T08:45:23.602Z,68.10
2018-11-25T08:46:23.621Z,29.70
2018-11-25T08:47:23.634Z,25.10
2018-11-25T08:48:23.653Z,31.20
2018-11-25T08:49:23.618Z,41.40
2018-11-25T08:50:23.608Z,18.70
2018-11-25T08:51:23.607Z,20.00
2018-11-25T08:52:23.605Z,22.80
2018-11-25T08:53:23.664Z,19.70
2018-11-25T08:54:23.602Z,20.00
2018-11-25T08:55:23.602Z,22.80
2018-11-25T08:56:23.603Z,20.40
2018-11-25T08:57:24.933Z,20.40
2018-11-25T08:58:23.628Z,21.10
2018-11-25T08:59:24.151Z,20.70
2018-11-25T09:00:23.604Z,18.60
2018-11-25T09:01:23.598Z,19.60
2018-11-25T09:02:23.602Z,19.80
2018-11-25T09:03:23.628Z,20.10
2018-11-25T09:04:23.601Z,19.20
2018-11-25T09:05:23.599Z,19.60
2018-11-25T09:06:23.598Z,19.80
2018-11-25T09:07:23.597Z,20.80
2018-11-25T09:08:23.625Z,18.80
2018-11-25T09:09:23.597Z,18.30
2018-11-25T09:10:23.603Z,19.40
2018-11-25T09:11:23.593Z,20.10
2018-11-25T09:12:23.592Z,20.60
2018-11-25T09:13:23.622Z,19.20
2018-11-25T09:14:23.603Z,19.80
2018-11-25T09:15:23.593Z,18.80
2018-11-25T09:16:23.592Z,19.50
2018-11-25T09:17:23.588Z,19.20
2018-11-25T09:18:23.634Z,18.10
2018-11-25T09:19:23.592Z,19.10
2018-11-25T09:20:23.592Z,20.10
2018-11-25T09:21:23.594Z,21.80
2018-11-25T09:22:23.588Z,21.40
2018-11-25T09:23:23.616Z,25.30
2018-11-25T09:24:23.584Z,22.90
2018-11-25T09:25:23.586Z,21.60
2018-11-25T09:26:23.586Z,20.60
2018-11-25T09:27:23.585Z,20.70
2018-11-25T09:28:23.615Z,20.20
2018-11-25T09:29:23.584Z,18.80
2018-11-25T09:30:23.586Z,20.50
2018-11-25T09:31:23.583Z,19.30
2018-11-25T09:32:23.582Z,19.50
2018-11-25T09:33:23.607Z,20.40
2018-11-25T09:34:23.582Z,19.90
2018-11-25T09:35:23.585Z,18.30
2018-11-25T09:36:23.580Z,17.30
2018-11-25T09:37:23.623Z,19.70
2018-11-25T09:38:23.581Z,18.00
2018-11-25T09:39:23.638Z,19.10
2018-11-25T09:40:23.580Z,18.10
2018-11-25T09:41:23.583Z,18.30
2018-11-25T09:42:23.604Z,18.50
2018-11-25T09:43:23.575Z,19.10
2018-11-25T09:44:23.578Z,20.50
2018-11-25T09:45:23.579Z,19.80
2018-11-25T09:46:23.576Z,20.20
2018-11-25T09:47:23.637Z,17.40
2018-11-25T09:48:23.599Z,17.70
2018-11-25T09:49:23.597Z,17.20
2018-11-25T09:50:23.582Z,18.00
2018-11-25T09:51:23.589Z,20.40
2018-11-25T09:52:23.692Z,23.70
2018-11-25T09:53:23.567Z,24.60
2018-11-25T09:54:23.566Z,20.80
2018-11-25T09:55:23.568Z,20.10
2018-11-25T09:56:23.564Z,19.70
2018-11-25T09:57:23.588Z,18.70
2018-11-25T09:58:25.454Z,20.00
2018-11-25T09:59:23.559Z,17.90
2018-11-25T10:00:23.555Z,16.30
2018-11-25T10:01:23.555Z,16.10
2018-11-25T10:02:23.585Z,17.80
2018-11-25T10:03:23.555Z,18.30
2018-11-25T10:04:23.552Z,19.80
2018-11-25T10:05:23.551Z,18.00
2018-11-25T10:06:23.549Z,18.60
2018-11-25T10:07:23.576Z,19.80
2018-11-25T10:08:23.539Z,19.20
2018-11-25T10:09:24.147Z,20.20
2018-11-25T10:10:23.538Z,19.10
2018-11-25T10:11:23.542Z,19.50
2018-11-25T10:12:23.577Z,20.80
2018-11-25T10:13:23.531Z,19.70
2018-11-25T10:14:23.531Z,18.40
2018-11-25T10:15:23.530Z,16.30
2018-11-25T10:16:23.531Z,15.60
2018-11-25T10:17:23.551Z,17.80
2018-11-25T10:18:23.524Z,19.10
2018-11-25T10:19:23.520Z,16.90
2018-11-25T10:20:23.515Z,16.00
2018-11-25T10:21:23.514Z,17.70
2018-11-25T10:22:23.534Z,17.70
2018-11-25T10:23:23.508Z,19.50
2018-11-25T10:24:23.511Z,17.20
2018-11-25T10:25:23.503Z,16.50
2018-11-25T10:26:23.528Z,15.90
2018-11-25T10:27:23.499Z,17.00
2018-11-25T10:28:23.495Z,15.90
2018-11-25T10:29:23.495Z,16.30
2018-11-25T10:30:23.500Z,15.40
2018-11-25T10:31:23.519Z,21.30
2018-11-25T10:32:23.486Z,16.80
2018-11-25T10:33:23.491Z,15.30
2018-11-25T10:34:23.490Z,15.30
2018-11-25T10:35:23.481Z,17.30
2018-11-25T10:36:23.513Z,21.20
2018-11-25T10:37:23.479Z,15.30
2018-11-25T10:38:23.475Z,17.50
2018-11-25T10:39:23.480Z,17.20
2018-11-25T10:40:23.472Z,15.00
2018-11-25T10:41:23.498Z,16.20
2018-11-25T10:42:23.467Z,15.10
2018-11-25T10:43:23.466Z,16.50
2018-11-25T10:44:23.473Z,15.30
2018-11-25T10:45:23.467Z,14.80
2018-11-25T10:46:23.491Z,14.50
2018-11-25T10:47:23.463Z,15.60
2018-11-25T10:48:23.460Z,17.60
2018-11-25T10:49:23.476Z,15.60
2018-11-25T10:50:23.455Z,17.50
2018-11-25T10:51:23.491Z,15.80
2018-11-25T10:52:23.454Z,16.70
2018-11-25T10:53:23.450Z,15.90
2018-11-25T10:54:23.466Z,16.40
2018-11-25T10:55:23.458Z,16.40
2018-11-25T10:56:23.470Z,16.50
2018-11-25T10:57:23.472Z,16.10
2018-11-25T10:58:23.439Z,18.30
2018-11-25T10:59:23.436Z,19.10
2018-11-25T11:00:23.434Z,20.00
2018-11-25T11:01:23.435Z,17.60
2018-11-25T11:02:23.454Z,16.10
2018-11-25T11:03:23.430Z,15.10
2018-11-25T11:04:23.430Z,16.40
2018-11-25T11:05:23.427Z,15.60
2018-11-25T11:06:23.423Z,17.00
2018-11-25T11:07:23.451Z,16.20
2018-11-25T11:08:23.418Z,14.60
2018-11-25T11:09:23.422Z,15.00
2018-11-25T11:10:24.149Z,17.60
2018-11-25T11:11:23.417Z,14.90
2018-11-25T11:12:23.439Z,14.50
2018-11-25T11:13:23.420Z,16.00
2018-11-25T11:14:23.410Z,14.60
2018-11-25T11:15:23.413Z,17.50
2018-11-25T11:16:23.406Z,16.50
2018-11-25T11:17:23.434Z,16.20
2018-11-25T11:18:23.403Z,17.40
2018-11-25T11:19:23.402Z,17.70
2018-11-25T11:20:23.398Z,15.90
2018-11-25T11:21:23.398Z,16.40
2018-11-25T11:22:23.422Z,17.20
2018-11-25T11:23:23.394Z,17.00
2018-11-25T11:24:23.394Z,16.10
2018-11-25T11:25:23.390Z,15.20
2018-11-25T11:26:23.390Z,15.20
2018-11-25T11:27:23.415Z,18.20
2018-11-25T11:28:23.391Z,14.50
2018-11-25T11:29:23.387Z,15.30
2018-11-25T11:30:23.387Z,15.90
2018-11-25T11:31:23.379Z,17.10
2018-11-25T11:32:23.409Z,15.60
2018-11-25T11:33:23.382Z,15.10
2018-11-25T11:34:23.380Z,15.10
2018-11-25T11:35:23.377Z,15.20
2018-11-25T11:36:23.374Z,15.00
2018-11-25T11:37:23.402Z,17.00
2018-11-25T11:38:23.378Z,14.90
2018-11-25T11:39:24.150Z,17.00
2018-11-25T11:40:23.370Z,15.30
2018-11-25T11:41:23.369Z,15.20
2018-11-25T11:42:28.552Z,15.30
2018-11-25T11:43:23.369Z,14.50
2018-11-25T11:44:23.366Z,14.70
2018-11-25T11:45:23.366Z,13.50
2018-11-25T11:46:23.369Z,15.20
2018-11-25T11:47:23.397Z,16.00
2018-11-25T11:48:23.366Z,16.60
2018-11-25T11:49:23.364Z,15.10
2018-11-25T11:50:23.369Z,14.90
2018-11-25T11:51:26.030Z,15.30
2018-11-25T11:52:23.393Z,14.20
2018-11-25T11:53:23.369Z,14.30
2018-11-25T11:54:23.363Z,15.30
2018-11-25T11:55:23.365Z,13.60
2018-11-25T11:56:23.368Z,13.70
2018-11-25T11:57:23.389Z,14.00
2018-11-25T11:58:23.368Z,15.70
2018-11-25T11:59:23.408Z,14.60
2018-11-25T12:00:23.370Z,12.90
2018-11-25T12:01:23.366Z,12.70
2018-11-25T12:02:23.394Z,13.40
2018-11-25T12:03:26.435Z,13.80
2018-11-25T12:04:23.367Z,14.20
2018-11-25T12:05:23.369Z,13.40
2018-11-25T12:06:23.368Z,16.10
2018-11-25T12:07:23.393Z,13.70
2018-11-25T12:08:23.359Z,12.90
2018-11-25T12:09:23.357Z,14.90
2018-11-25T12:10:23.359Z,14.00
2018-11-25T12:11:23.413Z,14.20
2018-11-25T12:12:23.390Z,13.50
2018-11-25T12:13:23.364Z,14.60
2018-11-25T12:14:23.362Z,13.70
2018-11-25T12:15:29.939Z,14.50
2018-11-25T12:16:23.359Z,13.90
2018-11-25T12:17:23.357Z,15.00
2018-11-25T12:18:23.389Z,14.20
2018-11-25T12:19:23.357Z,14.20
2018-11-25T12:20:23.358Z,15.20
2018-11-25T12:21:23.363Z,14.70
2018-11-25T12:22:23.399Z,14.90
2018-11-25T12:23:23.358Z,16.60
2018-11-25T12:24:23.356Z,17.80
2018-11-25T12:25:23.351Z,17.70
2018-11-25T12:26:23.353Z,16.40
2018-11-25T12:27:23.353Z,14.90
2018-11-25T12:28:23.389Z,16.00
2018-11-25T12:29:23.350Z,15.30
2018-11-25T12:30:24.164Z,15.60
2018-11-25T12:31:23.350Z,16.00
2018-11-25T12:32:23.345Z,15.80
2018-11-25T12:33:23.370Z,16.40
2018-11-25T12:34:23.347Z,16.00
2018-11-25T12:35:23.344Z,15.50
2018-11-25T12:36:23.343Z,15.90
2018-11-25T12:37:23.339Z,16.70
2018-11-25T12:38:23.370Z,15.00
2018-11-25T12:39:28.283Z,16.40
2018-11-25T12:40:23.338Z,15.40
2018-11-25T12:41:23.335Z,17.10
2018-11-25T12:42:23.341Z,16.50
2018-11-25T12:43:23.357Z,18.20
2018-11-25T12:44:29.122Z,15.90
2018-11-25T12:45:23.330Z,16.70
2018-11-25T12:46:23.326Z,15.20
2018-11-25T12:47:24.294Z,16.90
2018-11-25T12:48:23.349Z,17.90
2018-11-25T12:49:23.320Z,17.30
2018-11-25T12:50:23.322Z,18.90
2018-11-25T12:51:23.323Z,16.70
2018-11-25T12:52:23.317Z,18.00